sensor_id;sensor_type;location;lat;lon;timestamp;pressure;altitude;pressure_sealevel;temperature;humidity
77381;BME280;66439;50.106;10.996;2023-11-19T00:01:05;98614.41;;;7.16;74.70
77381;BME280;66439;50.106;10.996;2023-11-19T00:03:28;98595.64;;;7.14;74.90
77381;BME280;66439;50.106;10.996;2023-11-19T00:05:31;98593.45;;;7.13;74.92
77381;BME280;66439;50.106;10.996;2023-11-19T00:07:33;98583.27;;;7.17;75.11
77381;BME280;66439;50.106;10.996;2023-11-19T00:09:38;98576.81;;;7.20;74.93
77381;BME280;66439;50.106;10.996;2023-11-19T00:11:40;98568.91;;;7.21;74.92
77381;BME280;66439;50.106;10.996;2023-11-19T00:13:43;98560.71;;;7.22;74.99
77381;BME280;66439;50.106;10.996;2023-11-19T00:15:45;98554.54;;;7.24;74.76
77381;BME280;66439;50.106;10.996;2023-11-19T00:17:50;98543.53;;;7.28;74.78
77381;BME280;66439;50.106;10.996;2023-11-19T00:19:53;98546.48;;;7.33;74.84
77381;BME280;66439;50.106;10.996;2023-11-19T00:21:56;98558.71;;;7.37;74.73
77381;BME280;66439;50.106;10.996;2023-11-19T00:23:58;98574.83;;;7.40;74.56
77381;BME280;66439;50.106;10.996;2023-11-19T00:26:01;98585.55;;;7.42;74.83
77381;BME280;66439;50.106;10.996;2023-11-19T00:28:08;98593.44;;;7.39;74.63
77381;BME280;66439;50.106;10.996;2023-11-19T00:30:11;98584.05;;;7.35;74.52
77381;BME280;66439;50.106;10.996;2023-11-19T00:32:14;98571.69;;;7.34;74.64
77381;BME280;66439;50.106;10.996;2023-11-19T00:34:19;98562.26;;;7.34;74.66
77381;BME280;66439;50.106;10.996;2023-11-19T00:36:24;98563.69;;;7.36;74.73
77381;BME280;66439;50.106;10.996;2023-11-19T00:38:28;98552.02;;;7.34;74.54
77381;BME280;66439;50.106;10.996;2023-11-19T00:40:30;98545.00;;;7.34;74.57
77381;BME280;66439;50.106;10.996;2023-11-19T00:42:34;98546.04;;;7.36;74.72
77381;BME280;66439;50.106;10.996;2023-11-19T00:44:37;98542.07;;;7.37;74.78
77381;BME280;66439;50.106;10.996;2023-11-19T00:46:40;98544.42;;;7.39;74.71
77381;BME280;66439;50.106;10.996;2023-11-19T00:48:43;98555.71;;;7.41;74.69
77381;BME280;66439;50.106;10.996;2023-11-19T00:50:45;98562.53;;;7.40;74.75
77381;BME280;66439;50.106;10.996;2023-11-19T00:52:49;98562.34;;;7.38;74.65
77381;BME280;66439;50.106;10.996;2023-11-19T00:54:53;98559.98;;;7.37;74.62
77381;BME280;66439;50.106;10.996;2023-11-19T00:56:56;98561.43;;;7.37;74.70
77381;BME280;66439;50.106;10.996;2023-11-19T00:58:59;98548.77;;;7.35;74.59
77381;BME280;66439;50.106;10.996;2023-11-19T01:01:02;98545.67;;;7.38;74.65
77381;BME280;66439;50.106;10.996;2023-11-19T01:03:05;98540.45;;;7.37;74.44
77381;BME280;66439;50.106;10.996;2023-11-19T01:05:10;98542.43;;;7.37;74.59
77381;BME280;66439;50.106;10.996;2023-11-19T01:07:17;98541.15;;;7.39;74.78
77381;BME280;66439;50.106;10.996;2023-11-19T01:09:20;98538.79;;;7.41;74.86
77381;BME280;66439;50.106;10.996;2023-11-19T01:11:23;98542.59;;;7.42;74.75
77381;BME280;66439;50.106;10.996;2023-11-19T01:13:28;98545.01;;;7.42;74.66
77381;BME280;66439;50.106;10.996;2023-11-19T01:15:31;98545.20;;;7.42;74.66
77381;BME280;66439;50.106;10.996;2023-11-19T01:17:37;98554.33;;;7.39;74.55
77381;BME280;66439;50.106;10.996;2023-11-19T01:19:40;98555.09;;;7.35;74.55
77381;BME280;66439;50.106;10.996;2023-11-19T01:21:43;98555.47;;;7.32;74.67
77381;BME280;66439;50.106;10.996;2023-11-19T01:23:46;98554.06;;;7.30;74.70
77381;BME280;66439;50.106;10.996;2023-11-19T01:25:49;98554.96;;;7.31;74.67
77381;BME280;66439;50.106;10.996;2023-11-19T01:27:52;98558.63;;;7.34;74.98
77381;BME280;66439;50.106;10.996;2023-11-19T01:29:54;98556.35;;;7.35;74.95
77381;BME280;66439;50.106;10.996;2023-11-19T01:31:57;98554.29;;;7.35;75.20
77381;BME280;66439;50.106;10.996;2023-11-19T01:34:00;98541.37;;;7.35;75.19
77381;BME280;66439;50.106;10.996;2023-11-19T01:36:03;98535.23;;;7.36;75.12
77381;BME280;66439;50.106;10.996;2023-11-19T01:38:07;98529.94;;;7.38;75.24
77381;BME280;66439;50.106;10.996;2023-11-19T01:40:11;98523.02;;;7.40;75.18
77381;BME280;66439;50.106;10.996;2023-11-19T01:42:14;98514.50;;;7.44;75.02
77381;BME280;66439;50.106;10.996;2023-11-19T01:44:20;98507.33;;;7.46;74.97
77381;BME280;66439;50.106;10.996;2023-11-19T01:46:22;98497.80;;;7.48;75.02
77381;BME280;66439;50.106;10.996;2023-11-19T01:48:25;98490.35;;;7.50;75.25
77381;BME280;66439;50.106;10.996;2023-11-19T01:50:28;98493.14;;;7.54;75.19
77381;BME280;66439;50.106;10.996;2023-11-19T01:52:34;98495.20;;;7.54;75.17
77381;BME280;66439;50.106;10.996;2023-11-19T01:54:41;98494.21;;;7.53;74.88
77381;BME280;66439;50.106;10.996;2023-11-19T01:56:45;98482.95;;;7.48;74.92
77381;BME280;66439;50.106;10.996;2023-11-19T01:58:48;98482.27;;;7.45;75.02
77381;BME280;66439;50.106;10.996;2023-11-19T02:00:52;98479.14;;;7.43;75.11
77381;BME280;66439;50.106;10.996;2023-11-19T02:02:55;98477.73;;;7.40;75.13
77381;BME280;66439;50.106;10.996;2023-11-19T02:04:59;98477.82;;;7.42;75.14
77381;BME280;66439;50.106;10.996;2023-11-19T02:07:02;98476.95;;;7.44;75.13
77381;BME280;66439;50.106;10.996;2023-11-19T02:09:05;98477.88;;;7.45;75.31
77381;BME280;66439;50.106;10.996;2023-11-19T02:11:10;98479.86;;;7.44;75.38
77381;BME280;66439;50.106;10.996;2023-11-19T02:13:14;98475.73;;;7.44;75.26
77381;BME280;66439;50.106;10.996;2023-11-19T02:15:18;98468.46;;;7.44;75.28
77381;BME280;66439;50.106;10.996;2023-11-19T02:17:30;98464.27;;;7.44;75.45
77381;BME280;66439;50.106;10.996;2023-11-19T02:19:41;98452.43;;;7.42;75.41
77381;BME280;66439;50.106;10.996;2023-11-19T02:21:44;98449.39;;;7.41;75.49
77381;BME280;66439;50.106;10.996;2023-11-19T02:23:48;98448.52;;;7.40;75.56
77381;BME280;66439;50.106;10.996;2023-11-19T02:26:30;98440.94;;;7.40;75.41
77381;BME280;66439;50.106;10.996;2023-11-19T02:28:36;98434.21;;;7.41;75.49
77381;BME280;66439;50.106;10.996;2023-11-19T02:30:39;98431.88;;;7.43;75.43
77381;BME280;66439;50.106;10.996;2023-11-19T02:32:42;98424.66;;;7.46;75.78
77381;BME280;66439;50.106;10.996;2023-11-19T02:34:45;98424.36;;;7.47;75.52
77381;BME280;66439;50.106;10.996;2023-11-19T02:36:48;98426.70;;;7.45;75.52
77381;BME280;66439;50.106;10.996;2023-11-19T02:38:52;98425.26;;;7.44;75.71
77381;BME280;66439;50.106;10.996;2023-11-19T02:40:55;98421.30;;;7.43;75.62
77381;BME280;66439;50.106;10.996;2023-11-19T02:42:57;98414.52;;;7.45;75.83
77381;BME280;66439;50.106;10.996;2023-11-19T02:45:01;98414.55;;;7.47;75.67
77381;BME280;66439;50.106;10.996;2023-11-19T02:47:05;98417.73;;;7.50;75.60
77381;BME280;66439;50.106;10.996;2023-11-19T02:49:09;98417.77;;;7.51;75.37
77381;BME280;66439;50.106;10.996;2023-11-19T02:51:13;98414.71;;;7.53;75.61
77381;BME280;66439;50.106;10.996;2023-11-19T02:53:16;98405.69;;;7.55;75.76
77381;BME280;66439;50.106;10.996;2023-11-19T02:55:20;98404.89;;;7.58;75.64
77381;BME280;66439;50.106;10.996;2023-11-19T02:57:22;98396.14;;;7.59;75.72
77381;BME280;66439;50.106;10.996;2023-11-19T02:59:25;98385.98;;;7.59;75.51
77381;BME280;66439;50.106;10.996;2023-11-19T03:01:41;98389.91;;;7.61;75.49
77381;BME280;66439;50.106;10.996;2023-11-19T03:03:46;98381.48;;;7.62;75.57
77381;BME280;66439;50.106;10.996;2023-11-19T03:05:55;98380.36;;;7.61;75.49
77381;BME280;66439;50.106;10.996;2023-11-19T03:07:57;98373.92;;;7.62;75.36
77381;BME280;66439;50.106;10.996;2023-11-19T03:10:00;98368.36;;;7.63;75.49
77381;BME280;66439;50.106;10.996;2023-11-19T03:12:03;98352.79;;;7.63;75.47
77381;BME280;66439;50.106;10.996;2023-11-19T03:14:09;98346.80;;;7.64;75.53
77381;BME280;66439;50.106;10.996;2023-11-19T03:16:11;98340.94;;;7.65;75.46
77381;BME280;66439;50.106;10.996;2023-11-19T03:18:15;98336.12;;;7.65;75.62
77381;BME280;66439;50.106;10.996;2023-11-19T03:20:18;98334.11;;;7.67;75.70
77381;BME280;66439;50.106;10.996;2023-11-19T03:22:21;98329.09;;;7.70;75.64
77381;BME280;66439;50.106;10.996;2023-11-19T03:24:24;98322.49;;;7.70;75.70
77381;BME280;66439;50.106;10.996;2023-11-19T03:26:27;98321.39;;;7.72;75.60
77381;BME280;66439;50.106;10.996;2023-11-19T03:28:31;98316.48;;;7.75;75.32
77381;BME280;66439;50.106;10.996;2023-11-19T03:30:34;98318.13;;;7.79;75.47
77381;BME280;66439;50.106;10.996;2023-11-19T03:32:38;98313.41;;;7.84;75.53
77381;BME280;66439;50.106;10.996;2023-11-19T03:34:41;98307.55;;;7.86;75.60
77381;BME280;66439;50.106;10.996;2023-11-19T03:36:44;98310.88;;;7.89;75.52
77381;BME280;66439;50.106;10.996;2023-11-19T03:38:48;98315.13;;;7.92;75.53
77381;BME280;66439;50.106;10.996;2023-11-19T03:40:51;98315.05;;;7.93;75.30
77381;BME280;66439;50.106;10.996;2023-11-19T03:42:58;98313.23;;;7.93;75.24
77381;BME280;66439;50.106;10.996;2023-11-19T03:45:01;98308.88;;;7.89;75.47
77381;BME280;66439;50.106;10.996;2023-11-19T03:47:06;98314.35;;;7.88;75.43
77381;BME280;66439;50.106;10.996;2023-11-19T03:49:09;98311.40;;;7.89;75.52
77381;BME280;66439;50.106;10.996;2023-11-19T03:51:12;98313.98;;;7.91;75.47
77381;BME280;66439;50.106;10.996;2023-11-19T03:53:17;98313.02;;;7.92;75.40
77381;BME280;66439;50.106;10.996;2023-11-19T03:55:21;98308.08;;;7.90;75.56
77381;BME280;66439;50.106;10.996;2023-11-19T03:57:24;98311.09;;;7.90;75.77
77381;BME280;66439;50.106;10.996;2023-11-19T03:59:28;98308.52;;;7.90;75.71
77381;BME280;66439;50.106;10.996;2023-11-19T04:01:31;98320.26;;;7.90;75.74
77381;BME280;66439;50.106;10.996;2023-11-19T04:03:33;98318.61;;;7.89;75.67
77381;BME280;66439;50.106;10.996;2023-11-19T04:05:36;98319.55;;;7.87;75.81
77381;BME280;66439;50.106;10.996;2023-11-19T04:07:39;98315.74;;;7.87;75.91
77381;BME280;66439;50.106;10.996;2023-11-19T04:09:44;98317.42;;;7.87;75.78
77381;BME280;66439;50.106;10.996;2023-11-19T04:11:49;98312.48;;;7.89;75.88
77381;BME280;66439;50.106;10.996;2023-11-19T04:13:51;98316.63;;;7.89;75.85
77381;BME280;66439;50.106;10.996;2023-11-19T04:15:54;98322.11;;;7.90;75.96
77381;BME280;66439;50.106;10.996;2023-11-19T04:17:57;98332.80;;;7.89;75.95
77381;BME280;66439;50.106;10.996;2023-11-19T04:20:00;98331.08;;;7.85;76.13
77381;BME280;66439;50.106;10.996;2023-11-19T04:22:03;98333.89;;;7.84;76.16
77381;BME280;66439;50.106;10.996;2023-11-19T04:24:09;98324.11;;;7.83;76.36
77381;BME280;66439;50.106;10.996;2023-11-19T04:26:16;98323.77;;;7.84;76.37
77381;BME280;66439;50.106;10.996;2023-11-19T04:28:19;98329.23;;;7.87;76.27
77381;BME280;66439;50.106;10.996;2023-11-19T04:30:21;98326.83;;;7.91;76.30
77381;BME280;66439;50.106;10.996;2023-11-19T04:32:26;98317.61;;;7.95;76.35
77381;BME280;66439;50.106;10.996;2023-11-19T04:34:29;98312.71;;;7.96;76.50
77381;BME280;66439;50.106;10.996;2023-11-19T04:36:32;98308.79;;;7.98;76.34
77381;BME280;66439;50.106;10.996;2023-11-19T04:38:35;98306.98;;;8.01;76.46
77381;BME280;66439;50.106;10.996;2023-11-19T04:40:40;98299.14;;;8.05;76.55
77381;BME280;66439;50.106;10.996;2023-11-19T04:42:45;98293.01;;;8.08;76.45
77381;BME280;66439;50.106;10.996;2023-11-19T04:44:47;98290.86;;;8.11;76.40
77381;BME280;66439;50.106;10.996;2023-11-19T04:46:50;98285.64;;;8.13;76.47
77381;BME280;66439;50.106;10.996;2023-11-19T04:48:53;98285.77;;;8.18;76.32
77381;BME280;66439;50.106;10.996;2023-11-19T04:50:55;98278.92;;;8.21;76.16
77381;BME280;66439;50.106;10.996;2023-11-19T04:52:58;98276.42;;;8.24;76.22
77381;BME280;66439;50.106;10.996;2023-11-19T04:55:03;98277.90;;;8.28;76.28
77381;BME280;66439;50.106;10.996;2023-11-19T04:57:06;98279.76;;;8.32;76.28
77381;BME280;66439;50.106;10.996;2023-11-19T04:59:08;98283.67;;;8.35;76.29
77381;BME280;66439;50.106;10.996;2023-11-19T05:01:14;98274.34;;;8.36;76.18
77381;BME280;66439;50.106;10.996;2023-11-19T05:03:18;98273.69;;;8.38;76.18
77381;BME280;66439;50.106;10.996;2023-11-19T05:05:21;98267.84;;;8.38;75.90
77381;BME280;66439;50.106;10.996;2023-11-19T05:07:24;98263.18;;;8.38;76.06
77381;BME280;66439;50.106;10.996;2023-11-19T05:09:26;98261.27;;;8.41;75.99
77381;BME280;66439;50.106;10.996;2023-11-19T05:11:29;98258.42;;;8.45;75.88
77381;BME280;66439;50.106;10.996;2023-11-19T05:13:32;98249.84;;;8.49;75.80
77381;BME280;66439;50.106;10.996;2023-11-19T05:15:34;98241.77;;;8.52;75.96
77381;BME280;66439;50.106;10.996;2023-11-19T05:17:37;98245.23;;;8.53;75.81
77381;BME280;66439;50.106;10.996;2023-11-19T05:19:41;98249.34;;;8.54;75.99
77381;BME280;66439;50.106;10.996;2023-11-19T05:21:44;98253.12;;;8.53;75.88
77381;BME280;66439;50.106;10.996;2023-11-19T05:23:47;98256.80;;;8.52;76.00
77381;BME280;66439;50.106;10.996;2023-11-19T05:25:50;98251.16;;;8.50;75.86
77381;BME280;66439;50.106;10.996;2023-11-19T05:27:54;98239.18;;;8.51;75.95
77381;BME280;66439;50.106;10.996;2023-11-19T05:29:56;98241.35;;;8.54;76.11
77381;BME280;66439;50.106;10.996;2023-11-19T05:31:59;98239.97;;;8.57;76.03
77381;BME280;66439;50.106;10.996;2023-11-19T05:34:02;98244.10;;;8.58;76.06
77381;BME280;66439;50.106;10.996;2023-11-19T05:36:06;98249.34;;;8.60;76.14
77381;BME280;66439;50.106;10.996;2023-11-19T05:38:10;98260.27;;;8.60;76.25
77381;BME280;66439;50.106;10.996;2023-11-19T05:40:13;98256.29;;;8.59;76.19
77381;BME280;66439;50.106;10.996;2023-11-19T05:42:19;98253.60;;;8.60;76.29
77381;BME280;66439;50.106;10.996;2023-11-19T05:44:22;98245.14;;;8.57;76.35
77381;BME280;66439;50.106;10.996;2023-11-19T05:46:25;98251.02;;;8.56;76.19
77381;BME280;66439;50.106;10.996;2023-11-19T05:48:29;98246.33;;;8.55;76.13
77381;BME280;66439;50.106;10.996;2023-11-19T05:50:32;98244.95;;;8.57;76.25
77381;BME280;66439;50.106;10.996;2023-11-19T05:52:35;98244.11;;;8.59;76.45
77381;BME280;66439;50.106;10.996;2023-11-19T05:54:38;98236.30;;;8.60;76.44
77381;BME280;66439;50.106;10.996;2023-11-19T05:56:41;98230.03;;;8.63;76.64
77381;BME280;66439;50.106;10.996;2023-11-19T05:58:45;98233.66;;;8.67;76.55
77381;BME280;66439;50.106;10.996;2023-11-19T06:00:48;98235.36;;;8.67;76.53
77381;BME280;66439;50.106;10.996;2023-11-19T06:02:51;98231.52;;;8.68;76.54
77381;BME280;66439;50.106;10.996;2023-11-19T06:04:54;98244.91;;;8.70;76.58
77381;BME280;66439;50.106;10.996;2023-11-19T06:06:56;98252.48;;;8.68;76.39
77381;BME280;66439;50.106;10.996;2023-11-19T06:08:59;98256.77;;;8.68;76.36
77381;BME280;66439;50.106;10.996;2023-11-19T06:11:15;98262.14;;;8.71;76.49
77381;BME280;66439;50.106;10.996;2023-11-19T06:13:21;98254.62;;;8.73;76.47
77381;BME280;66439;50.106;10.996;2023-11-19T06:15:26;98250.77;;;8.74;76.50
77381;BME280;66439;50.106;10.996;2023-11-19T06:17:32;98253.23;;;8.79;76.57
77381;BME280;66439;50.106;10.996;2023-11-19T06:19:35;98254.73;;;8.83;76.54
77381;BME280;66439;50.106;10.996;2023-11-19T06:21:38;98254.45;;;8.84;76.40
77381;BME280;66439;50.106;10.996;2023-11-19T06:23:42;98255.29;;;8.83;76.41
77381;BME280;66439;50.106;10.996;2023-11-19T06:25:46;98257.13;;;8.80;76.63
77381;BME280;66439;50.106;10.996;2023-11-19T06:27:51;98249.00;;;8.82;76.49
77381;BME280;66439;50.106;10.996;2023-11-19T06:29:58;98252.33;;;8.84;76.64
77381;BME280;66439;50.106;10.996;2023-11-19T06:32:01;98252.95;;;8.85;76.55
77381;BME280;66439;50.106;10.996;2023-11-19T06:34:17;98253.95;;;8.86;76.84
77381;BME280;66439;50.106;10.996;2023-11-19T06:36:21;98249.16;;;8.88;76.86
77381;BME280;66439;50.106;10.996;2023-11-19T06:38:25;98251.59;;;8.90;76.91
77381;BME280;66439;50.106;10.996;2023-11-19T06:40:27;98246.85;;;8.91;76.88
77381;BME280;66439;50.106;10.996;2023-11-19T06:42:30;98231.67;;;8.91;76.80
77381;BME280;66439;50.106;10.996;2023-11-19T06:44:33;98224.75;;;8.92;76.72
77381;BME280;66439;50.106;10.996;2023-11-19T06:46:36;98239.02;;;8.96;77.01
77381;BME280;66439;50.106;10.996;2023-11-19T06:48:39;98242.70;;;8.99;77.04
77381;BME280;66439;50.106;10.996;2023-11-19T06:50:42;98249.20;;;9.01;77.18
77381;BME280;66439;50.106;10.996;2023-11-19T06:52:45;98245.36;;;9.03;77.16
77381;BME280;66439;50.106;10.996;2023-11-19T06:54:48;98247.20;;;9.06;77.38
77381;BME280;66439;50.106;10.996;2023-11-19T06:56:51;98243.38;;;9.07;77.31
77381;BME280;66439;50.106;10.996;2023-11-19T06:58:55;98249.95;;;9.08;77.31
77381;BME280;66439;50.106;10.996;2023-11-19T07:00:58;98249.66;;;9.09;77.19
77381;BME280;66439;50.106;10.996;2023-11-19T07:03:01;98248.91;;;9.11;77.06
77381;BME280;66439;50.106;10.996;2023-11-19T07:05:05;98247.02;;;9.14;77.15
77381;BME280;66439;50.106;10.996;2023-11-19T07:07:08;98244.80;;;9.17;77.11
77381;BME280;66439;50.106;10.996;2023-11-19T07:09:13;98238.77;;;9.17;77.16
77381;BME280;66439;50.106;10.996;2023-11-19T07:11:17;98241.19;;;9.19;77.21
77381;BME280;66439;50.106;10.996;2023-11-19T07:13:20;98253.61;;;9.17;77.15
77381;BME280;66439;50.106;10.996;2023-11-19T07:15:26;98251.46;;;9.14;77.20
77381;BME280;66439;50.106;10.996;2023-11-19T07:17:30;98251.44;;;9.13;77.28
77381;BME280;66439;50.106;10.996;2023-11-19T07:19:33;98252.61;;;9.12;77.20
77381;BME280;66439;50.106;10.996;2023-11-19T07:21:41;98256.77;;;9.16;77.21
77381;BME280;66439;50.106;10.996;2023-11-19T07:23:46;98262.95;;;9.20;77.23
77381;BME280;66439;50.106;10.996;2023-11-19T07:25:49;98267.30;;;9.25;77.32
77381;BME280;66439;50.106;10.996;2023-11-19T07:27:54;98270.80;;;9.29;77.19
77381;BME280;66439;50.106;10.996;2023-11-19T07:29:57;98283.15;;;9.32;77.35
77381;BME280;66439;50.106;10.996;2023-11-19T07:32:03;98278.42;;;9.34;77.29
77381;BME280;66439;50.106;10.996;2023-11-19T07:34:06;98279.35;;;9.37;77.20
77381;BME280;66439;50.106;10.996;2023-11-19T07:36:12;98286.34;;;9.39;77.13
77381;BME280;66439;50.106;10.996;2023-11-19T07:38:15;98287.93;;;9.39;76.99
77381;BME280;66439;50.106;10.996;2023-11-19T07:40:18;98284.26;;;9.41;77.00
77381;BME280;66439;50.106;10.996;2023-11-19T07:42:23;98290.42;;;9.44;76.95
77381;BME280;66439;50.106;10.996;2023-11-19T07:44:26;98291.15;;;9.44;76.98
77381;BME280;66439;50.106;10.996;2023-11-19T07:46:29;98286.19;;;9.46;77.23
77381;BME280;66439;50.106;10.996;2023-11-19T07:48:35;98291.12;;;9.49;77.29
77381;BME280;66439;50.106;10.996;2023-11-19T07:50:39;98295.68;;;9.51;77.15
77381;BME280;66439;50.106;10.996;2023-11-19T07:52:45;98294.96;;;9.54;77.38
77381;BME280;66439;50.106;10.996;2023-11-19T07:54:48;98299.66;;;9.56;77.32
77381;BME280;66439;50.106;10.996;2023-11-19T07:56:51;98294.19;;;9.57;77.13
77381;BME280;66439;50.106;10.996;2023-11-19T07:58:55;98292.13;;;9.62;77.24
77381;BME280;66439;50.106;10.996;2023-11-19T08:00:58;98279.20;;;9.67;77.05
77381;BME280;66439;50.106;10.996;2023-11-19T08:03:00;98279.56;;;9.71;77.06
77381;BME280;66439;50.106;10.996;2023-11-19T08:05:03;98271.33;;;9.75;77.07
77381;BME280;66439;50.106;10.996;2023-11-19T08:07:06;98276.35;;;9.80;77.07
77381;BME280;66439;50.106;10.996;2023-11-19T08:09:09;98282.23;;;9.84;76.88
77381;BME280;66439;50.106;10.996;2023-11-19T08:11:17;98281.41;;;9.86;77.07
77381;BME280;66439;50.106;10.996;2023-11-19T08:13:24;98282.10;;;9.88;77.05
77381;BME280;66439;50.106;10.996;2023-11-19T08:15:27;98285.39;;;9.93;77.23
77381;BME280;66439;50.106;10.996;2023-11-19T08:17:32;98284.37;;;9.98;77.05
77381;BME280;66439;50.106;10.996;2023-11-19T08:19:35;98283.88;;;10.02;77.09
77381;BME280;66439;50.106;10.996;2023-11-19T08:21:40;98277.08;;;10.07;77.24
77381;BME280;66439;50.106;10.996;2023-11-19T08:23:44;98279.11;;;10.12;77.15
77381;BME280;66439;50.106;10.996;2023-11-19T08:25:47;98280.64;;;10.14;77.42
77381;BME280;66439;50.106;10.996;2023-11-19T08:27:49;98280.52;;;10.15;77.22
77381;BME280;66439;50.106;10.996;2023-11-19T08:29:54;98281.37;;;10.18;77.10
77381;BME280;66439;50.106;10.996;2023-11-19T08:32:00;98284.30;;;10.21;77.06
77381;BME280;66439;50.106;10.996;2023-11-19T08:34:05;98290.70;;;10.24;77.10
77381;BME280;66439;50.106;10.996;2023-11-19T08:36:17;98288.17;;;10.26;77.22
77381;BME280;66439;50.106;10.996;2023-11-19T08:38:20;98290.85;;;10.28;77.45
77381;BME280;66439;50.106;10.996;2023-11-19T08:40:25;98287.92;;;10.30;77.33
77381;BME280;66439;50.106;10.996;2023-11-19T08:42:28;98285.89;;;10.31;77.36
77381;BME280;66439;50.106;10.996;2023-11-19T08:44:32;98278.05;;;10.32;77.35
77381;BME280;66439;50.106;10.996;2023-11-19T08:46:35;98281.43;;;10.35;77.32
77381;BME280;66439;50.106;10.996;2023-11-19T08:48:38;98278.98;;;10.40;77.35
77381;BME280;66439;50.106;10.996;2023-11-19T08:50:40;98278.39;;;10.43;77.17
77381;BME280;66439;50.106;10.996;2023-11-19T08:52:43;98283.84;;;10.45;77.23
77381;BME280;66439;50.106;10.996;2023-11-19T08:54:46;98282.75;;;10.48;77.15
77381;BME280;66439;50.106;10.996;2023-11-19T08:56:49;98288.98;;;10.50;77.24
77381;BME280;66439;50.106;10.996;2023-11-19T08:58:53;98290.39;;;10.51;77.40
77381;BME280;66439;50.106;10.996;2023-11-19T09:00:55;98290.30;;;10.52;77.44
77381;BME280;66439;50.106;10.996;2023-11-19T09:02:58;98282.05;;;10.57;77.45
77381;BME280;66439;50.106;10.996;2023-11-19T09:05:02;98278.36;;;10.62;77.28
77381;BME280;66439;50.106;10.996;2023-11-19T09:07:05;98282.97;;;10.66;77.22
77381;BME280;66439;50.106;10.996;2023-11-19T09:09:08;98280.06;;;10.67;77.40
77381;BME280;66439;50.106;10.996;2023-11-19T09:11:12;98275.83;;;10.68;77.43
77381;BME280;66439;50.106;10.996;2023-11-19T09:13:14;98279.67;;;10.70;77.25
77381;BME280;66439;50.106;10.996;2023-11-19T09:15:18;98282.09;;;10.75;77.46
77381;BME280;66439;50.106;10.996;2023-11-19T09:17:21;98280.81;;;10.79;77.27
77381;BME280;66439;50.106;10.996;2023-11-19T09:19:24;98271.71;;;10.84;77.24
77381;BME280;66439;50.106;10.996;2023-11-19T09:21:27;98279.55;;;10.87;77.25
77381;BME280;66439;50.106;10.996;2023-11-19T09:23:29;98281.60;;;10.89;77.28
77381;BME280;66439;50.106;10.996;2023-11-19T09:25:35;98281.66;;;10.92;77.17
77381;BME280;66439;50.106;10.996;2023-11-19T09:27:41;98275.88;;;10.95;77.31
77381;BME280;66439;50.106;10.996;2023-11-19T09:29:44;98278.48;;;11.00;77.08
77381;BME280;66439;50.106;10.996;2023-11-19T09:31:49;98276.29;;;11.03;77.00
77381;BME280;66439;50.106;10.996;2023-11-19T09:33:52;98279.79;;;11.09;77.01
77381;BME280;66439;50.106;10.996;2023-11-19T09:35:55;98289.11;;;11.15;77.02
77381;BME280;66439;50.106;10.996;2023-11-19T09:37:58;98290.48;;;11.18;76.99
77381;BME280;66439;50.106;10.996;2023-11-19T09:40:03;98287.05;;;11.22;77.11
77381;BME280;66439;50.106;10.996;2023-11-19T09:42:06;98279.86;;;11.25;77.14
77381;BME280;66439;50.106;10.996;2023-11-19T09:44:09;98274.24;;;11.30;77.18
77381;BME280;66439;50.106;10.996;2023-11-19T09:46:15;98268.24;;;11.33;77.03
77381;BME280;66439;50.106;10.996;2023-11-19T09:48:18;98270.46;;;11.35;77.03
77381;BME280;66439;50.106;10.996;2023-11-19T09:50:21;98263.25;;;11.38;77.06
77381;BME280;66439;50.106;10.996;2023-11-19T09:52:24;98264.05;;;11.42;77.33
77381;BME280;66439;50.106;10.996;2023-11-19T09:54:27;98261.45;;;11.45;77.73
77381;BME280;66439;50.106;10.996;2023-11-19T09:56:30;98255.59;;;11.50;77.71
77381;BME280;66439;50.106;10.996;2023-11-19T09:58:36;98256.23;;;11.53;77.81
77381;BME280;66439;50.106;10.996;2023-11-19T10:00:41;98255.38;;;11.56;77.71
77381;BME280;66439;50.106;10.996;2023-11-19T10:02:44;98253.10;;;11.60;77.53
77381;BME280;66439;50.106;10.996;2023-11-19T10:04:49;98252.07;;;11.61;77.58
77381;BME280;66439;50.106;10.996;2023-11-19T10:06:53;98245.80;;;11.62;77.81
77381;BME280;66439;50.106;10.996;2023-11-19T10:08:56;98238.57;;;11.65;77.56
77381;BME280;66439;50.106;10.996;2023-11-19T10:10:59;98239.36;;;11.69;77.43
77381;BME280;66439;50.106;10.996;2023-11-19T10:13:03;98237.61;;;11.73;77.44
77381;BME280;66439;50.106;10.996;2023-11-19T10:15:06;98241.79;;;11.78;77.59
77381;BME280;66439;50.106;10.996;2023-11-19T10:17:13;98240.48;;;11.81;77.40
77381;BME280;66439;50.106;10.996;2023-11-19T10:19:20;98240.06;;;11.81;77.47
77381;BME280;66439;50.106;10.996;2023-11-19T10:21:24;98238.42;;;11.82;77.24
77381;BME280;66439;50.106;10.996;2023-11-19T10:23:27;98228.25;;;11.82;77.27
77381;BME280;66439;50.106;10.996;2023-11-19T10:25:30;98228.60;;;11.85;77.10
77381;BME280;66439;50.106;10.996;2023-11-19T10:27:34;98228.39;;;11.88;77.10
77381;BME280;66439;50.106;10.996;2023-11-19T10:29:37;98228.90;;;11.91;77.08
77381;BME280;66439;50.106;10.996;2023-11-19T10:31:55;98232.94;;;11.92;77.12
77381;BME280;66439;50.106;10.996;2023-11-19T10:33:59;98230.79;;;11.94;77.08
77381;BME280;66439;50.106;10.996;2023-11-19T10:36:03;98229.40;;;11.95;76.75
77381;BME280;66439;50.106;10.996;2023-11-19T10:38:15;98228.33;;;11.95;76.80
77381;BME280;66439;50.106;10.996;2023-11-19T10:40:19;98232.01;;;11.94;76.63
77381;BME280;66439;50.106;10.996;2023-11-19T10:42:22;98236.08;;;11.94;76.73
77381;BME280;66439;50.106;10.996;2023-11-19T10:44:34;98238.04;;;11.94;76.57
77381;BME280;66439;50.106;10.996;2023-11-19T10:46:40;98238.01;;;11.95;76.73
77381;BME280;66439;50.106;10.996;2023-11-19T10:48:44;98241.55;;;11.93;76.88
77381;BME280;66439;50.106;10.996;2023-11-19T10:50:51;98238.98;;;11.94;77.21
77381;BME280;66439;50.106;10.996;2023-11-19T10:52:57;98235.73;;;11.95;77.03
77381;BME280;66439;50.106;10.996;2023-11-19T10:55:05;98235.30;;;11.97;77.26